Observations for LAMEZIA TERME, Italy (LICA)

LICA 181350Z 25007KT 9999 FEW020 17/11 Q1021
LICA 181250Z 22008KT 9999 FEW035 19/13 Q1021
LICA 181150Z 26007KT 9999 FEW035 17/11 Q1021
LICA 181050Z 25007KT 9999 FEW030 17/12 Q1021
LICA 180950Z 27008KT 9999 FEW030 16/12 Q1021
LICA 180850Z 25006KT 210V290 9999 FEW025 16/12 Q1022
LICA 180750Z VRB03KT 9999 FEW020 16/12 Q1022
LICA 180650Z VRB02KT 9999 FEW020 15/12 Q1022
LICA 180550Z 08004KT 9999 SCT020 11/10 Q1021
LICA 180450Z 07004KT 9999 SCT015 10/09 Q1021
LICA 180350Z 09002KT 9999 BKN015 10/10 Q1021
LICA 180250Z 09004KT 9999 BKN015 11/09 Q1021
LICA 180150Z 07002KT 9999 BKN015 12/10 Q1021
LICA 180050Z VRB02KT 9999 BKN015 13/11 Q1021
LICA 172350Z VRB03KT 9999 BKN015 13/11 Q1021
LICA 172250Z VRB02KT 9999 BKN015 12/11 Q1021
LICA 172150Z VRB01KT 9999 SCT015 SCT070 13/11 Q1021 
LICA 172050Z VRB01KT 9999 SCT020 13/11 Q1021
LICA 171950Z 24003KT 9999 SCT020 14/12 Q1021
LICA 171850Z 24004KT 9999 FEW015 BKN080 14/12 Q1020 
LICA 171750Z 23004KT 9999 -DZ FEW015 BKN075 15/12 Q1020 
LICA 171650Z 27006KT 9999 FEW015 SCT035 15/12 Q1019 
LICA 171550Z 25007KT 9999 FEW015 SCT035 15/12 Q1019 
LICA 171450Z 23010KT 9999 FEW015 SCT035 16/11 Q1019 
LICA 171350Z 23011KT 9999 FEW015 SCT035 17/12 Q1019